sensor_id;sensor_type;location;lat;lon;timestamp;P1;durP1;ratioP1;P2;durP2;ratioP2
64854;SDS011;51321;50.428;8.378;2024-02-15T00:01:28;4.25;;;2.50;;
64854;SDS011;51321;50.428;8.378;2024-02-15T00:04:09;6.88;;;2.20;;
64854;SDS011;51321;50.428;8.378;2024-02-15T00:06:50;4.53;;;2.05;;
64854;SDS011;51321;50.428;8.378;2024-02-15T00:09:30;3.72;;;1.83;;
64854;SDS011;51321;50.428;8.378;2024-02-15T00:12:13;2.60;;;1.77;;
64854;SDS011;51321;50.428;8.378;2024-02-15T00:14:53;3.53;;;1.80;;
64854;SDS011;51321;50.428;8.378;2024-02-15T00:17:36;2.70;;;1.60;;
64854;SDS011;51321;50.428;8.378;2024-02-15T00:20:17;3.25;;;1.40;;
64854;SDS011;51321;50.428;8.378;2024-02-15T00:22:58;3.45;;;1.88;;
64854;SDS011;51321;50.428;8.378;2024-02-15T00:25:39;6.38;;;2.55;;
64854;SDS011;51321;50.428;8.378;2024-02-15T00:28:24;7.43;;;1.63;;
64854;SDS011;51321;50.428;8.378;2024-02-15T00:31:05;6.45;;;2.38;;
64854;SDS011;51321;50.428;8.378;2024-02-15T00:33:46;3.72;;;1.67;;
64854;SDS011;51321;50.428;8.378;2024-02-15T00:36:27;4.30;;;1.80;;
64854;SDS011;51321;50.428;8.378;2024-02-15T00:39:09;4.88;;;2.50;;
64854;SDS011;51321;50.428;8.378;2024-02-15T00:41:52;8.10;;;2.00;;
64854;SDS011;51321;50.428;8.378;2024-02-15T00:44:35;8.40;;;2.23;;
64854;SDS011;51321;50.428;8.378;2024-02-15T00:47:16;5.85;;;2.22;;
64854;SDS011;51321;50.428;8.378;2024-02-15T00:49:59;6.47;;;2.10;;
64854;SDS011;51321;50.428;8.378;2024-02-15T00:52:40;7.22;;;2.35;;
64854;SDS011;51321;50.428;8.378;2024-02-15T00:55:20;5.60;;;2.10;;
64854;SDS011;51321;50.428;8.378;2024-02-15T00:58:01;4.80;;;3.33;;
64854;SDS011;51321;50.428;8.378;2024-02-15T01:00:43;5.25;;;2.38;;
64854;SDS011;51321;50.428;8.378;2024-02-15T01:03:23;4.72;;;2.70;;
64854;SDS011;51321;50.428;8.378;2024-02-15T01:06:03;8.10;;;2.47;;
64854;SDS011;51321;50.428;8.378;2024-02-15T01:08:44;6.53;;;2.35;;
64854;SDS011;51321;50.428;8.378;2024-02-15T01:11:25;4.03;;;2.33;;
64854;SDS011;51321;50.428;8.378;2024-02-15T01:14:07;6.37;;;3.23;;
64854;SDS011;51321;50.428;8.378;2024-02-15T01:16:49;6.28;;;2.75;;
64854;SDS011;51321;50.428;8.378;2024-02-15T01:19:30;8.57;;;2.80;;
64854;SDS011;51321;50.428;8.378;2024-02-15T01:22:11;7.78;;;2.40;;
64854;SDS011;51321;50.428;8.378;2024-02-15T01:24:51;3.85;;;2.67;;
64854;SDS011;51321;50.428;8.378;2024-02-15T01:27:31;4.97;;;2.25;;
64854;SDS011;51321;50.428;8.378;2024-02-15T01:30:13;5.00;;;2.78;;
64854;SDS011;51321;50.428;8.378;2024-02-15T01:32:55;9.38;;;3.00;;
64854;SDS011;51321;50.428;8.378;2024-02-15T01:35:35;6.80;;;2.78;;
64854;SDS011;51321;50.428;8.378;2024-02-15T01:38:16;5.50;;;2.60;;
64854;SDS011;51321;50.428;8.378;2024-02-15T01:40:56;5.13;;;2.50;;
64854;SDS011;51321;50.428;8.378;2024-02-15T01:43:36;5.75;;;2.35;;
64854;SDS011;51321;50.428;8.378;2024-02-15T01:46:17;13.07;;;2.83;;
64854;SDS011;51321;50.428;8.378;2024-02-15T01:49:00;6.25;;;2.80;;
64854;SDS011;51321;50.428;8.378;2024-02-15T01:51:40;7.30;;;2.53;;
64854;SDS011;51321;50.428;8.378;2024-02-15T01:54:23;3.53;;;1.70;;
64854;SDS011;51321;50.428;8.378;2024-02-15T01:57:04;4.45;;;1.85;;
64854;SDS011;51321;50.428;8.378;2024-02-15T01:59:46;5.70;;;2.55;;
64854;SDS011;51321;50.428;8.378;2024-02-15T02:02:28;11.95;;;2.38;;
64854;SDS011;51321;50.428;8.378;2024-02-15T02:05:15;7.55;;;3.38;;
64854;SDS011;51321;50.428;8.378;2024-02-15T02:07:55;5.35;;;2.45;;
64854;SDS011;51321;50.428;8.378;2024-02-15T02:10:38;8.15;;;3.08;;
64854;SDS011;51321;50.428;8.378;2024-02-15T02:13:18;5.18;;;2.88;;
64854;SDS011;51321;50.428;8.378;2024-02-15T02:15:59;5.63;;;2.70;;
64854;SDS011;51321;50.428;8.378;2024-02-15T02:18:40;9.45;;;2.50;;
64854;SDS011;51321;50.428;8.378;2024-02-15T02:21:23;4.43;;;2.10;;
64854;SDS011;51321;50.428;8.378;2024-02-15T02:24:04;6.35;;;2.88;;
64854;SDS011;51321;50.428;8.378;2024-02-15T02:26:52;4.07;;;2.22;;
64854;SDS011;51321;50.428;8.378;2024-02-15T02:29:33;3.57;;;2.07;;
64854;SDS011;51321;50.428;8.378;2024-02-15T02:32:14;6.47;;;2.17;;
64854;SDS011;51321;50.428;8.378;2024-02-15T02:34:55;8.35;;;2.63;;
64854;SDS011;51321;50.428;8.378;2024-02-15T02:37:36;4.55;;;2.30;;
64854;SDS011;51321;50.428;8.378;2024-02-15T02:40:17;4.55;;;2.33;;
64854;SDS011;51321;50.428;8.378;2024-02-15T02:42:59;6.18;;;2.13;;
64854;SDS011;51321;50.428;8.378;2024-02-15T02:45:40;6.13;;;2.13;;
64854;SDS011;51321;50.428;8.378;2024-02-15T02:48:23;4.45;;;1.48;;
64854;SDS011;51321;50.428;8.378;2024-02-15T02:51:07;2.50;;;1.50;;
64854;SDS011;51321;50.428;8.378;2024-02-15T02:53:47;5.90;;;1.60;;
64854;SDS011;51321;50.428;8.378;2024-02-15T02:56:28;4.63;;;2.25;;
64854;SDS011;51321;50.428;8.378;2024-02-15T02:59:10;3.78;;;2.28;;
64854;SDS011;51321;50.428;8.378;2024-02-15T03:01:51;3.92;;;1.80;;
64854;SDS011;51321;50.428;8.378;2024-02-15T03:04:35;4.38;;;1.90;;
64854;SDS011;51321;50.428;8.378;2024-02-15T03:07:17;3.95;;;1.83;;
64854;SDS011;51321;50.428;8.378;2024-02-15T03:09:58;5.15;;;1.67;;
64854;SDS011;51321;50.428;8.378;2024-02-15T03:12:38;4.22;;;1.75;;
64854;SDS011;51321;50.428;8.378;2024-02-15T03:15:20;7.07;;;2.30;;
64854;SDS011;51321;50.428;8.378;2024-02-15T03:20:45;8.57;;;1.95;;
64854;SDS011;51321;50.428;8.378;2024-02-15T03:23:27;4.63;;;2.38;;
64854;SDS011;51321;50.428;8.378;2024-02-15T03:26:08;3.10;;;1.50;;
64854;SDS011;51321;50.428;8.378;2024-02-15T03:28:49;5.97;;;1.90;;
64854;SDS011;51321;50.428;8.378;2024-02-15T03:31:31;4.70;;;1.60;;
64854;SDS011;51321;50.428;8.378;2024-02-15T03:34:13;5.05;;;1.90;;
64854;SDS011;51321;50.428;8.378;2024-02-15T03:36:54;3.85;;;1.75;;
64854;SDS011;51321;50.428;8.378;2024-02-15T03:39:35;3.85;;;1.65;;
64854;SDS011;51321;50.428;8.378;2024-02-15T03:42:16;7.85;;;1.95;;
64854;SDS011;51321;50.428;8.378;2024-02-15T03:44:56;5.10;;;1.63;;
64854;SDS011;51321;50.428;8.378;2024-02-15T03:47:38;4.03;;;1.80;;
64854;SDS011;51321;50.428;8.378;2024-02-15T03:50:19;4.30;;;2.22;;
64854;SDS011;51321;50.428;8.378;2024-02-15T03:53:00;4.35;;;1.40;;
64854;SDS011;51321;50.428;8.378;2024-02-15T03:55:40;5.72;;;2.00;;
64854;SDS011;51321;50.428;8.378;2024-02-15T03:58:22;3.03;;;2.22;;
64854;SDS011;51321;50.428;8.378;2024-02-15T04:01:02;4.57;;;1.83;;
64854;SDS011;51321;50.428;8.378;2024-02-15T04:03:46;4.28;;;1.73;;
64854;SDS011;51321;50.428;8.378;2024-02-15T04:06:27;3.22;;;1.70;;
64854;SDS011;51321;50.428;8.378;2024-02-15T04:11:50;5.53;;;1.80;;
64854;SDS011;51321;50.428;8.378;2024-02-15T04:14:32;3.30;;;1.70;;
64854;SDS011;51321;50.428;8.378;2024-02-15T04:17:12;4.03;;;1.83;;
64854;SDS011;51321;50.428;8.378;2024-02-15T04:19:55;2.38;;;1.40;;
64854;SDS011;51321;50.428;8.378;2024-02-15T04:22:36;5.20;;;2.60;;
64854;SDS011;51321;50.428;8.378;2024-02-15T04:25:16;8.85;;;2.47;;
64854;SDS011;51321;50.428;8.378;2024-02-15T04:27:58;8.40;;;2.38;;
64854;SDS011;51321;50.428;8.378;2024-02-15T04:30:42;8.77;;;2.70;;
64854;SDS011;51321;50.428;8.378;2024-02-15T04:33:23;7.53;;;2.53;;
64854;SDS011;51321;50.428;8.378;2024-02-15T04:36:05;5.07;;;2.22;;
64854;SDS011;51321;50.428;8.378;2024-02-15T04:38:47;5.32;;;1.95;;
64854;SDS011;51321;50.428;8.378;2024-02-15T04:41:28;7.07;;;1.70;;
64854;SDS011;51321;50.428;8.378;2024-02-15T04:44:09;6.50;;;2.10;;
64854;SDS011;51321;50.428;8.378;2024-02-15T04:46:50;4.97;;;1.65;;
64854;SDS011;51321;50.428;8.378;2024-02-15T04:49:30;6.88;;;2.47;;
64854;SDS011;51321;50.428;8.378;2024-02-15T04:52:13;8.63;;;2.10;;
64854;SDS011;51321;50.428;8.378;2024-02-15T04:54:53;4.65;;;2.03;;
64854;SDS011;51321;50.428;8.378;2024-02-15T04:57:34;8.73;;;2.67;;
64854;SDS011;51321;50.428;8.378;2024-02-15T05:00:16;8.00;;;2.33;;
64854;SDS011;51321;50.428;8.378;2024-02-15T05:03:00;3.28;;;1.98;;
64854;SDS011;51321;50.428;8.378;2024-02-15T05:05:40;5.65;;;2.40;;
64854;SDS011;51321;50.428;8.378;2024-02-15T05:08:22;6.10;;;3.10;;
64854;SDS011;51321;50.428;8.378;2024-02-15T05:11:02;7.07;;;2.73;;
64854;SDS011;51321;50.428;8.378;2024-02-15T05:13:44;3.35;;;2.20;;
64854;SDS011;51321;50.428;8.378;2024-02-15T05:16:24;4.88;;;1.80;;
64854;SDS011;51321;50.428;8.378;2024-02-15T05:19:05;6.40;;;1.98;;
64854;SDS011;51321;50.428;8.378;2024-02-15T05:21:45;5.18;;;1.90;;
64854;SDS011;51321;50.428;8.378;2024-02-15T05:24:28;6.88;;;3.35;;
64854;SDS011;51321;50.428;8.378;2024-02-15T05:27:10;7.28;;;2.38;;
64854;SDS011;51321;50.428;8.378;2024-02-15T05:29:51;6.57;;;2.15;;
64854;SDS011;51321;50.428;8.378;2024-02-15T05:32:32;6.55;;;2.05;;
64854;SDS011;51321;50.428;8.378;2024-02-15T05:35:15;10.35;;;2.00;;
64854;SDS011;51321;50.428;8.378;2024-02-15T05:37:56;3.25;;;1.90;;
64854;SDS011;51321;50.428;8.378;2024-02-15T05:40:38;4.45;;;1.63;;
64854;SDS011;51321;50.428;8.378;2024-02-15T05:43:18;5.45;;;1.98;;
64854;SDS011;51321;50.428;8.378;2024-02-15T05:45:58;10.15;;;2.75;;
64854;SDS011;51321;50.428;8.378;2024-02-15T05:48:40;3.25;;;1.90;;
64854;SDS011;51321;50.428;8.378;2024-02-15T05:51:21;9.30;;;2.83;;
64854;SDS011;51321;50.428;8.378;2024-02-15T05:54:02;6.00;;;2.00;;
64854;SDS011;51321;50.428;8.378;2024-02-15T05:56:44;4.20;;;2.38;;
64854;SDS011;51321;50.428;8.378;2024-02-15T05:59:30;6.20;;;4.30;;
64854;SDS011;51321;50.428;8.378;2024-02-15T06:02:11;6.70;;;4.75;;
64854;SDS011;51321;50.428;8.378;2024-02-15T06:04:54;8.63;;;4.53;;
64854;SDS011;51321;50.428;8.378;2024-02-15T06:07:40;5.45;;;2.20;;
64854;SDS011;51321;50.428;8.378;2024-02-15T06:10:20;8.20;;;2.30;;
64854;SDS011;51321;50.428;8.378;2024-02-15T06:13:02;7.78;;;2.13;;
64854;SDS011;51321;50.428;8.378;2024-02-15T06:15:43;11.77;;;3.37;;
64854;SDS011;51321;50.428;8.378;2024-02-15T06:18:24;7.57;;;2.65;;
64854;SDS011;51321;50.428;8.378;2024-02-15T06:21:07;3.83;;;2.03;;
64854;SDS011;51321;50.428;8.378;2024-02-15T06:23:47;4.90;;;2.33;;
64854;SDS011;51321;50.428;8.378;2024-02-15T06:26:29;3.03;;;2.10;;
64854;SDS011;51321;50.428;8.378;2024-02-15T06:29:11;7.95;;;2.50;;
64854;SDS011;51321;50.428;8.378;2024-02-15T06:32:09;7.68;;;4.55;;
64854;SDS011;51321;50.428;8.378;2024-02-15T06:35:07;6.38;;;3.92;;
64854;SDS011;51321;50.428;8.378;2024-02-15T06:38:06;11.30;;;4.07;;
64854;SDS011;51321;50.428;8.378;2024-02-15T06:41:04;11.13;;;5.10;;
64854;SDS011;51321;50.428;8.378;2024-02-15T06:43:45;10.05;;;4.90;;
64854;SDS011;51321;50.428;8.378;2024-02-15T06:46:27;7.45;;;3.28;;
64854;SDS011;51321;50.428;8.378;2024-02-15T06:49:07;8.80;;;3.45;;
64854;SDS011;51321;50.428;8.378;2024-02-15T06:51:48;6.38;;;2.47;;
64854;SDS011;51321;50.428;8.378;2024-02-15T06:54:28;10.98;;;3.38;;
64854;SDS011;51321;50.428;8.378;2024-02-15T06:57:09;8.23;;;3.00;;
64854;SDS011;51321;50.428;8.378;2024-02-15T06:59:49;4.53;;;2.13;;
64854;SDS011;51321;50.428;8.378;2024-02-15T07:02:32;6.07;;;2.25;;
64854;SDS011;51321;50.428;8.378;2024-02-15T07:05:13;6.95;;;2.75;;
64854;SDS011;51321;50.428;8.378;2024-02-15T07:07:56;6.18;;;3.20;;
64854;SDS011;51321;50.428;8.378;2024-02-15T07:10:37;7.85;;;3.58;;
64854;SDS011;51321;50.428;8.378;2024-02-15T07:13:17;8.95;;;4.40;;
64854;SDS011;51321;50.428;8.378;2024-02-15T07:15:58;12.02;;;4.60;;
64854;SDS011;51321;50.428;8.378;2024-02-15T07:18:39;10.43;;;4.75;;
64854;SDS011;51321;50.428;8.378;2024-02-15T07:21:20;7.50;;;4.10;;
64854;SDS011;51321;50.428;8.378;2024-02-15T07:24:05;12.35;;;4.55;;
64854;SDS011;51321;50.428;8.378;2024-02-15T07:26:46;7.85;;;5.93;;
64854;SDS011;51321;50.428;8.378;2024-02-15T07:29:26;10.65;;;5.70;;
64854;SDS011;51321;50.428;8.378;2024-02-15T07:32:09;11.68;;;6.05;;
64854;SDS011;51321;50.428;8.378;2024-02-15T07:34:52;9.98;;;5.30;;
64854;SDS011;51321;50.428;8.378;2024-02-15T07:37:32;10.85;;;6.85;;
64854;SDS011;51321;50.428;8.378;2024-02-15T07:40:12;25.58;;;11.10;;
64854;SDS011;51321;50.428;8.378;2024-02-15T07:42:54;21.63;;;10.20;;
64854;SDS011;51321;50.428;8.378;2024-02-15T07:45:36;13.88;;;10.32;;
64854;SDS011;51321;50.428;8.378;2024-02-15T07:48:17;15.98;;;8.77;;
64854;SDS011;51321;50.428;8.378;2024-02-15T07:50:58;7.03;;;4.35;;
64854;SDS011;51321;50.428;8.378;2024-02-15T07:53:39;12.52;;;6.38;;
64854;SDS011;51321;50.428;8.378;2024-02-15T07:56:20;14.07;;;8.25;;
64854;SDS011;51321;50.428;8.378;2024-02-15T07:59:00;8.93;;;5.82;;
64854;SDS011;51321;50.428;8.378;2024-02-15T08:01:42;14.07;;;6.55;;
64854;SDS011;51321;50.428;8.378;2024-02-15T08:04:24;13.68;;;7.82;;
64854;SDS011;51321;50.428;8.378;2024-02-15T08:07:06;14.10;;;6.72;;
64854;SDS011;51321;50.428;8.378;2024-02-15T08:09:49;11.85;;;4.90;;
64854;SDS011;51321;50.428;8.378;2024-02-15T08:12:30;8.82;;;4.35;;
64854;SDS011;51321;50.428;8.378;2024-02-15T08:15:29;7.93;;;4.45;;
64854;SDS011;51321;50.428;8.378;2024-02-15T08:18:11;14.18;;;4.63;;
64854;SDS011;51321;50.428;8.378;2024-02-15T08:20:52;18.98;;;5.78;;
64854;SDS011;51321;50.428;8.378;2024-02-15T08:23:33;12.68;;;5.78;;
64854;SDS011;51321;50.428;8.378;2024-02-15T08:26:14;12.85;;;5.40;;
64854;SDS011;51321;50.428;8.378;2024-02-15T08:28:55;11.32;;;4.93;;
64854;SDS011;51321;50.428;8.378;2024-02-15T08:31:36;11.30;;;4.60;;
64854;SDS011;51321;50.428;8.378;2024-02-15T08:34:17;4.93;;;3.83;;
64854;SDS011;51321;50.428;8.378;2024-02-15T08:36:59;13.90;;;3.40;;
64854;SDS011;51321;50.428;8.378;2024-02-15T08:39:41;7.18;;;3.22;;
64854;SDS011;51321;50.428;8.378;2024-02-15T08:42:23;7.82;;;3.13;;
64854;SDS011;51321;50.428;8.378;2024-02-15T08:45:04;29.50;;;17.55;;
64854;SDS011;51321;50.428;8.378;2024-02-15T08:47:47;27.65;;;17.05;;
64854;SDS011;51321;50.428;8.378;2024-02-15T08:50:28;22.23;;;12.57;;
64854;SDS011;51321;50.428;8.378;2024-02-15T08:53:08;18.85;;;8.73;;
64854;SDS011;51321;50.428;8.378;2024-02-15T08:55:50;16.00;;;7.38;;
64854;SDS011;51321;50.428;8.378;2024-02-15T08:58:31;14.18;;;9.10;;
64854;SDS011;51321;50.428;8.378;2024-02-15T09:01:12;9.48;;;7.18;;
64854;SDS011;51321;50.428;8.378;2024-02-15T09:03:53;13.18;;;7.57;;
64854;SDS011;51321;50.428;8.378;2024-02-15T09:06:34;15.20;;;6.57;;
64854;SDS011;51321;50.428;8.378;2024-02-15T09:09:14;13.52;;;6.97;;
64854;SDS011;51321;50.428;8.378;2024-02-15T09:11:56;17.30;;;9.50;;
64854;SDS011;51321;50.428;8.378;2024-02-15T09:14:37;18.60;;;9.20;;
64854;SDS011;51321;50.428;8.378;2024-02-15T09:17:18;14.10;;;9.27;;
64854;SDS011;51321;50.428;8.378;2024-02-15T09:19:58;21.95;;;10.80;;
64854;SDS011;51321;50.428;8.378;2024-02-15T09:22:39;19.48;;;10.88;;
64854;SDS011;51321;50.428;8.378;2024-02-15T09:25:20;25.05;;;13.45;;
64854;SDS011;51321;50.428;8.378;2024-02-15T09:28:04;10.73;;;7.55;;
64854;SDS011;51321;50.428;8.378;2024-02-15T09:30:44;20.57;;;13.73;;
64854;SDS011;51321;50.428;8.378;2024-02-15T09:33:25;42.17;;;28.90;;
64854;SDS011;51321;50.428;8.378;2024-02-15T09:36:06;28.25;;;16.05;;
64854;SDS011;51321;50.428;8.378;2024-02-15T09:38:46;19.13;;;13.38;;
64854;SDS011;51321;50.428;8.378;2024-02-15T09:41:27;14.57;;;8.13;;
64854;SDS011;51321;50.428;8.378;2024-02-15T09:44:08;10.25;;;5.88;;
64854;SDS011;51321;50.428;8.378;2024-02-15T09:46:55;11.60;;;6.70;;
64854;SDS011;51321;50.428;8.378;2024-02-15T09:49:43;12.65;;;8.40;;
64854;SDS011;51321;50.428;8.378;2024-02-15T09:52:23;12.50;;;6.70;;
64854;SDS011;51321;50.428;8.378;2024-02-15T09:55:04;17.10;;;7.90;;
64854;SDS011;51321;50.428;8.378;2024-02-15T09:57:49;11.13;;;6.53;;
64854;SDS011;51321;50.428;8.378;2024-02-15T10:00:31;16.30;;;7.07;;
64854;SDS011;51321;50.428;8.378;2024-02-15T10:03:13;13.30;;;6.22;;
64854;SDS011;51321;50.428;8.378;2024-02-15T10:05:58;6.32;;;4.13;;
64854;SDS011;51321;50.428;8.378;2024-02-15T10:08:39;6.38;;;3.70;;
64854;SDS011;51321;50.428;8.378;2024-02-15T10:11:20;7.22;;;4.13;;
64854;SDS011;51321;50.428;8.378;2024-02-15T10:14:08;6.88;;;3.70;;
64854;SDS011;51321;50.428;8.378;2024-02-15T10:16:51;8.00;;;3.00;;
64854;SDS011;51321;50.428;8.378;2024-02-15T10:19:33;7.32;;;4.40;;
64854;SDS011;51321;50.428;8.378;2024-02-15T10:22:13;9.27;;;3.67;;
64854;SDS011;51321;50.428;8.378;2024-02-15T10:24:57;8.25;;;3.45;;
64854;SDS011;51321;50.428;8.378;2024-02-15T10:27:50;4.93;;;2.85;;
64854;SDS011;51321;50.428;8.378;2024-02-15T10:30:59;8.75;;;3.60;;
64854;SDS011;51321;50.428;8.378;2024-02-15T10:33:52;6.18;;;3.28;;
64854;SDS011;51321;50.428;8.378;2024-02-15T10:36:33;7.33;;;2.80;;
64854;SDS011;51321;50.428;8.378;2024-02-15T10:39:14;6.90;;;2.63;;
64854;SDS011;51321;50.428;8.378;2024-02-15T10:41:59;6.70;;;3.30;;
64854;SDS011;51321;50.428;8.378;2024-02-15T10:44:40;3.88;;;2.40;;
64854;SDS011;51321;50.428;8.378;2024-02-15T10:47:22;4.13;;;2.67;;
64854;SDS011;51321;50.428;8.378;2024-02-15T10:50:04;3.97;;;2.35;;
64854;SDS011;51321;50.428;8.378;2024-02-15T10:52:48;6.68;;;2.20;;
64854;SDS011;51321;50.428;8.378;2024-02-15T10:55:35;4.82;;;2.15;;
64854;SDS011;51321;50.428;8.378;2024-02-15T10:58:19;6.78;;;2.10;;
64854;SDS011;51321;50.428;8.378;2024-02-15T11:01:03;5.03;;;2.28;;
64854;SDS011;51321;50.428;8.378;2024-02-15T11:03:50;4.88;;;2.10;;
64854;SDS011;51321;50.428;8.378;2024-02-15T11:06:33;4.65;;;1.00;;
64854;SDS011;51321;50.428;8.378;2024-02-15T11:09:18;3.08;;;0.80;;
64854;SDS011;51321;50.428;8.378;2024-02-15T11:12:01;3.05;;;0.70;;
64854;SDS011;51321;50.428;8.378;2024-02-15T11:14:43;2.08;;;0.77;;
64854;SDS011;51321;50.428;8.378;2024-02-15T11:20:45;3.00;;;1.00;;
64854;SDS011;51321;50.428;8.378;2024-02-15T11:23:29;4.10;;;0.80;;
64854;SDS011;51321;50.428;8.378;2024-02-15T11:26:10;7.68;;;0.93;;
64854;SDS011;51321;50.428;8.378;2024-02-15T11:29:06;4.47;;;1.92;;
64854;SDS011;51321;50.428;8.378;2024-02-15T11:31:53;19.80;;;13.63;;
64854;SDS011;51321;50.428;8.378;2024-02-15T11:34:44;6.20;;;5.22;;
64854;SDS011;51321;50.428;8.378;2024-02-15T11:43:48;5.13;;;2.20;;
64854;SDS011;51321;50.428;8.378;2024-02-15T11:46:36;2.67;;;0.88;;
64854;SDS011;51321;50.428;8.378;2024-02-15T11:49:18;4.38;;;1.45;;
64854;SDS011;51321;50.428;8.378;2024-02-15T11:52:02;10.55;;;5.88;;
64854;SDS011;51321;50.428;8.378;2024-02-15T11:54:49;4.80;;;1.45;;
64854;SDS011;51321;50.428;8.378;2024-02-15T11:57:29;5.85;;;2.33;;
64854;SDS011;51321;50.428;8.378;2024-02-15T12:00:23;1.52;;;0.68;;
64854;SDS011;51321;50.428;8.378;2024-02-15T12:03:22;3.42;;;0.80;;
64854;SDS011;51321;50.428;8.378;2024-02-15T12:06:21;3.67;;;0.77;;
64854;SDS011;51321;50.428;8.378;2024-02-15T12:09:19;2.83;;;0.82;;
64854;SDS011;51321;50.428;8.378;2024-02-15T12:12:26;3.72;;;1.02;;
64854;SDS011;51321;50.428;8.378;2024-02-15T12:15:25;4.82;;;3.15;;
64854;SDS011;51321;50.428;8.378;2024-02-15T12:18:23;17.02;;;10.98;;
64854;SDS011;51321;50.428;8.378;2024-02-15T12:21:21;19.90;;;11.18;;
64854;SDS011;51321;50.428;8.378;2024-02-15T12:24:04;45.72;;;24.52;;
64854;SDS011;51321;50.428;8.378;2024-02-15T12:26:45;19.58;;;11.05;;
64854;SDS011;51321;50.428;8.378;2024-02-15T12:29:26;7.13;;;2.88;;
64854;SDS011;51321;50.428;8.378;2024-02-15T12:32:09;3.80;;;1.40;;
64854;SDS011;51321;50.428;8.378;2024-02-15T12:34:50;5.40;;;1.20;;
64854;SDS011;51321;50.428;8.378;2024-02-15T12:37:31;3.70;;;1.23;;
64854;SDS011;51321;50.428;8.378;2024-02-15T12:40:12;2.05;;;0.80;;
64854;SDS011;51321;50.428;8.378;2024-02-15T12:42:54;2.60;;;0.70;;
64854;SDS011;51321;50.428;8.378;2024-02-15T12:45:35;3.65;;;1.35;;
64854;SDS011;51321;50.428;8.378;2024-02-15T12:48:18;2.47;;;1.00;;
64854;SDS011;51321;50.428;8.378;2024-02-15T12:50:58;3.17;;;1.00;;
64854;SDS011;51321;50.428;8.378;2024-02-15T12:53:39;3.08;;;1.27;;
64854;SDS011;51321;50.428;8.378;2024-02-15T12:56:21;3.90;;;1.30;;
64854;SDS011;51321;50.428;8.378;2024-02-15T12:59:02;3.70;;;0.70;;
64854;SDS011;51321;50.428;8.378;2024-02-15T13:01:43;2.88;;;0.70;;
64854;SDS011;51321;50.428;8.378;2024-02-15T13:04:26;3.13;;;0.70;;
64854;SDS011;51321;50.428;8.378;2024-02-15T13:07:07;5.95;;;1.30;;
64854;SDS011;51321;50.428;8.378;2024-02-15T13:09:47;2.22;;;0.88;;
64854;SDS011;51321;50.428;8.378;2024-02-15T13:12:28;4.00;;;1.10;;
64854;SDS011;51321;50.428;8.378;2024-02-15T13:15:09;2.50;;;0.90;;
64854;SDS011;51321;50.428;8.378;2024-02-15T13:17:53;4.32;;;0.75;;
64854;SDS011;51321;50.428;8.378;2024-02-15T13:20:35;3.50;;;1.02;;
64854;SDS011;51321;50.428;8.378;2024-02-15T13:23:16;3.78;;;0.75;;
64854;SDS011;51321;50.428;8.378;2024-02-15T13:26:01;4.82;;;0.95;;
64854;SDS011;51321;50.428;8.378;2024-02-15T13:28:43;5.80;;;0.93;;
64854;SDS011;51321;50.428;8.378;2024-02-15T13:31:23;2.47;;;0.60;;
64854;SDS011;51321;50.428;8.378;2024-02-15T13:34:06;2.95;;;0.70;;
64854;SDS011;51321;50.428;8.378;2024-02-15T13:36:48;3.95;;;0.93;;
64854;SDS011;51321;50.428;8.378;2024-02-15T13:39:30;2.85;;;0.80;;
64854;SDS011;51321;50.428;8.378;2024-02-15T13:42:13;6.55;;;3.72;;
64854;SDS011;51321;50.428;8.378;2024-02-15T13:44:53;6.15;;;3.17;;
64854;SDS011;51321;50.428;8.378;2024-02-15T13:47:35;16.98;;;9.40;;
64854;SDS011;51321;50.428;8.378;2024-02-15T13:50:16;8.82;;;4.57;;
64854;SDS011;51321;50.428;8.378;2024-02-15T13:53:00;26.63;;;15.77;;
64854;SDS011;51321;50.428;8.378;2024-02-15T13:55:41;10.23;;;5.38;;
64854;SDS011;51321;50.428;8.378;2024-02-15T13:58:22;5.28;;;2.50;;
64854;SDS011;51321;50.428;8.378;2024-02-15T14:01:03;3.08;;;0.80;;
64854;SDS011;51321;50.428;8.378;2024-02-15T14:03:44;2.22;;;0.70;;
64854;SDS011;51321;50.428;8.378;2024-02-15T14:06:25;4.05;;;0.90;;
64854;SDS011;51321;50.428;8.378;2024-02-15T14:09:08;3.20;;;0.90;;
64854;SDS011;51321;50.428;8.378;2024-02-15T14:11:50;3.53;;;1.25;;
64854;SDS011;51321;50.428;8.378;2024-02-15T14:14:31;3.95;;;1.30;;
64854;SDS011;51321;50.428;8.378;2024-02-15T14:17:11;2.53;;;1.50;;
64854;SDS011;51321;50.428;8.378;2024-02-15T14:19:53;6.60;;;1.20;;
64854;SDS011;51321;50.428;8.378;2024-02-15T14:22:35;4.10;;;0.98;;
64854;SDS011;51321;50.428;8.378;2024-02-15T14:25:18;2.47;;;1.05;;
64854;SDS011;51321;50.428;8.378;2024-02-15T14:27:59;1.98;;;0.80;;
64854;SDS011;51321;50.428;8.378;2024-02-15T14:30:40;4.22;;;0.95;;
64854;SDS011;51321;50.428;8.378;2024-02-15T14:33:38;4.05;;;0.88;;
64854;SDS011;51321;50.428;8.378;2024-02-15T14:36:19;5.70;;;0.82;;
64854;SDS011;51321;50.428;8.378;2024-02-15T14:38:59;6.18;;;1.00;;
64854;SDS011;51321;50.428;8.378;2024-02-15T14:41:43;3.80;;;0.82;;
64854;SDS011;51321;50.428;8.378;2024-02-15T14:44:24;4.28;;;0.93;;
64854;SDS011;51321;50.428;8.378;2024-02-15T14:47:05;4.85;;;1.40;;
64854;SDS011;51321;50.428;8.378;2024-02-15T14:49:46;4.80;;;1.10;;
64854;SDS011;51321;50.428;8.378;2024-02-15T14:52:26;3.10;;;0.90;;
64854;SDS011;51321;50.428;8.378;2024-02-15T14:55:07;2.75;;;1.30;;
64854;SDS011;51321;50.428;8.378;2024-02-15T14:57:49;4.68;;;1.52;;
64854;SDS011;51321;50.428;8.378;2024-02-15T15:00:29;3.30;;;0.73;;
64854;SDS011;51321;50.428;8.378;2024-02-15T15:03:10;4.03;;;1.00;;
64854;SDS011;51321;50.428;8.378;2024-02-15T15:05:52;7.22;;;1.15;;
64854;SDS011;51321;50.428;8.378;2024-02-15T15:08:58;4.10;;;1.38;;
64854;SDS011;51321;50.428;8.378;2024-02-15T15:12:10;4.07;;;0.98;;
64854;SDS011;51321;50.428;8.378;2024-02-15T15:15:10;5.45;;;1.10;;
64854;SDS011;51321;50.428;8.378;2024-02-15T15:17:51;3.63;;;0.95;;
64854;SDS011;51321;50.428;8.378;2024-02-15T15:20:32;3.10;;;0.90;;
64854;SDS011;51321;50.428;8.378;2024-02-15T15:23:13;8.05;;;1.33;;
64854;SDS011;51321;50.428;8.378;2024-02-15T15:25:55;4.43;;;2.13;;
64854;SDS011;51321;50.428;8.378;2024-02-15T15:28:35;6.53;;;3.45;;
64854;SDS011;51321;50.428;8.378;2024-02-15T15:31:18;6.50;;;4.18;;
64854;SDS011;51321;50.428;8.378;2024-02-15T15:33:59;3.75;;;2.00;;
64854;SDS011;51321;50.428;8.378;2024-02-15T15:36:39;3.38;;;0.90;;
64854;SDS011;51321;50.428;8.378;2024-02-15T15:39:21;7.93;;;0.98;;
64854;SDS011;51321;50.428;8.378;2024-02-15T15:42:03;6.53;;;0.70;;
64854;SDS011;51321;50.428;8.378;2024-02-15T15:44:46;8.43;;;0.93;;
64854;SDS011;51321;50.428;8.378;2024-02-15T15:47:30;4.40;;;0.93;;
64854;SDS011;51321;50.428;8.378;2024-02-15T15:50:11;6.78;;;1.17;;
64854;SDS011;51321;50.428;8.378;2024-02-15T15:52:51;9.10;;;0.60;;
64854;SDS011;51321;50.428;8.378;2024-02-15T15:55:32;3.28;;;1.10;;
64854;SDS011;51321;50.428;8.378;2024-02-15T15:58:14;3.85;;;1.42;;
64854;SDS011;51321;50.428;8.378;2024-02-15T16:00:54;4.47;;;0.85;;
64854;SDS011;51321;50.428;8.378;2024-02-15T16:03:36;4.80;;;0.90;;
64854;SDS011;51321;50.428;8.378;2024-02-15T16:06:18;3.70;;;0.77;;
64854;SDS011;51321;50.428;8.378;2024-02-15T16:09:00;5.07;;;1.33;;
64854;SDS011;51321;50.428;8.378;2024-02-15T16:11:42;3.17;;;0.80;;
64854;SDS011;51321;50.428;8.378;2024-02-15T16:14:22;7.43;;;0.73;;
64854;SDS011;51321;50.428;8.378;2024-02-15T16:17:03;3.60;;;1.00;;
64854;SDS011;51321;50.428;8.378;2024-02-15T16:19:45;3.65;;;1.27;;
64854;SDS011;51321;50.428;8.378;2024-02-15T16:22:25;4.63;;;1.50;;
64854;SDS011;51321;50.428;8.378;2024-02-15T16:25:07;3.88;;;0.73;;
64854;SDS011;51321;50.428;8.378;2024-02-15T16:27:49;4.07;;;0.55;;
64854;SDS011;51321;50.428;8.378;2024-02-15T16:30:32;3.30;;;0.43;;
64854;SDS011;51321;50.428;8.378;2024-02-15T16:33:12;4.30;;;1.10;;